Time;durP1;ratioP1;P1;durP2;ratioP2;P2;SDS_P1;SDS_P2;PMS_P1;PMS_P2;Temp;Humidity;BMP_temperature;BMP_pressure;BME280_temperature;BME280_humidity;BME280_pressure;Samples;Min_cycle;Max_cycle;Signal;HPM_P1;HPM_P2
2021/12/01 00:00:57;;;;;;;7.65;2.63;;;9.60;86.40;;;;;;4922489;29;20084;-96
2021/12/01 00:03:24;;;;;;;4.78;2.90;;;9.60;86.40;;;;;;4927478;29;20047;-94
2021/12/01 00:05:53;;;;;;;6.32;2.90;;;9.60;86.40;;;;;;4926299;29;20055;-94
2021/12/01 00:08:20;;;;;;;4.75;2.67;;;9.50;86.40;;;;;;4922597;29;20056;-95
2021/12/01 00:10:48;;;;;;;4.43;2.88;;;9.50;86.40;;;;;;4926175;29;20052;-94
2021/12/01 00:13:18;;;;;;;4.07;2.78;;;9.50;86.40;;;;;;4921239;29;20056;-95
2021/12/01 00:15:47;;;;;;;5.57;3.08;;;9.50;86.40;;;;;;4926836;29;20052;-94
2021/12/01 00:18:14;;;;;;;8.88;3.13;;;9.50;86.40;;;;;;4923613;29;20052;-95
2021/12/01 00:20:42;;;;;;;6.68;3.05;;;9.50;86.40;;;;;;4925631;29;20032;-94
2021/12/01 00:23:09;;;;;;;5.93;2.90;;;9.50;86.40;;;;;;4923049;29;20075;-94
2021/12/01 00:25:39;;;;;;;6.88;3.15;;;9.50;86.40;;;;;;4924367;29;20260;-96
2021/12/01 00:28:07;;;;;;;6.22;2.88;;;9.40;86.40;;;;;;4925705;29;20068;-95
2021/12/01 00:30:35;;;;;;;4.88;2.80;;;9.40;86.40;;;;;;4923909;29;20051;-95
2021/12/01 00:33:02;;;;;;;9.40;3.30;;;9.40;86.40;;;;;;4922255;29;20067;-95
2021/12/01 00:35:30;;;;;;;5.88;3.20;;;9.40;86.30;;;;;;4922731;29;20080;-96
2021/12/01 00:37:57;;;;;;;7.00;2.95;;;9.40;86.40;;;;;;4922706;29;20052;-96
2021/12/01 00:40:25;;;;;;;7.22;3.30;;;9.40;86.30;;;;;;4923707;29;20479;-94
2021/12/01 00:42:53;;;;;;;5.75;2.88;;;9.40;86.30;;;;;;4921525;29;20063;-94
2021/12/01 00:45:25;;;;;;;8.05;3.35;;;9.40;86.30;;;;;;4924768;29;20577;-96
2021/12/01 00:47:53;;;;;;;5.60;3.53;;;9.40;86.30;;;;;;4919391;29;20115;-95
2021/12/01 00:50:38;;;;;;;6.25;3.53;;;9.40;86.30;;;;;;4926916;29;20061;-96
2021/12/01 00:53:07;;;;;;;5.05;3.35;;;9.40;86.30;;;;;;4922951;29;20048;-96
2021/12/01 00:55:34;;;;;;;6.18;3.80;;;9.40;86.30;;;;;;4920970;29;20104;-94
2021/12/01 00:58:02;;;;;;;8.02;4.05;;;9.40;86.30;;;;;;4924261;29;20059;-94
2021/12/01 01:00:31;;;;;;;6.25;3.58;;;9.40;86.30;;;;;;4923918;29;20052;-95
2021/12/01 01:02:59;;;;;;;6.70;4.35;;;9.30;86.20;;;;;;4924769;29;20072;-96
2021/12/01 01:05:27;;;;;;;7.53;4.20;;;9.30;86.20;;;;;;4922567;29;20040;-96
2021/12/01 01:07:54;;;;;;;7.45;4.68;;;9.30;86.20;;;;;;4922297;29;20052;-94
2021/12/01 01:18:38;;;;;;;5.90;4.05;;;9.30;86.20;;;;;;4923221;29;20056;-95
2021/12/01 01:21:06;;;;;;;11.50;4.60;;;9.20;86.20;;;;;;4924854;29;20080;-94
2021/12/01 01:23:34;;;;;;;7.03;4.80;;;9.20;86.20;;;;;;4927551;29;20067;-94
2021/12/01 01:26:04;;;;;;;6.40;4.13;;;9.20;86.20;;;;;;4922021;29;20052;-94
2021/12/01 01:28:31;;;;;;;8.02;4.40;;;9.20;86.20;;;;;;4922989;29;20103;-94
2021/12/01 01:30:58;;;;;;;5.80;4.05;;;9.20;86.30;;;;;;4920624;29;20061;-94
2021/12/01 01:33:26;;;;;;;10.70;4.35;;;9.20;86.20;;;;;;4921096;29;20139;-95
2021/12/01 01:35:53;;;;;;;8.40;4.15;;;9.20;86.20;;;;;;4920408;29;20044;-94
2021/12/01 01:38:20;;;;;;;5.85;3.78;;;9.20;86.20;;;;;;4917786;29;20048;-94
2021/12/01 01:40:47;;;;;;;8.43;3.92;;;9.20;86.30;;;;;;4910160;29;20055;-95
2021/12/01 01:43:14;;;;;;;6.43;4.05;;;9.20;86.20;;;;;;4924244;29;20052;-95
2021/12/01 01:45:42;;;;;;;6.78;3.88;;;9.10;86.30;;;;;;4918749;29;20094;-93
2021/12/01 01:48:14;;;;;;;5.88;3.78;;;9.10;86.20;;;;;;4921251;29;20060;-94
2021/12/01 01:50:43;;;;;;;5.35;3.40;;;9.10;86.30;;;;;;4921499;29;20052;-94
2021/12/01 01:53:17;;;;;;;6.38;4.20;;;9.10;86.20;;;;;;4923267;29;20055;-94
2021/12/01 01:55:52;;;;;;;6.53;3.85;;;9.10;86.30;;;;;;4911562;29;20048;-95
2021/12/01 01:58:21;;;;;;;5.53;3.80;;;9.20;86.30;;;;;;4927794;29;20072;-95
2021/12/01 02:00:59;;;;;;;7.18;4.07;;;9.10;86.30;;;;;;4919491;29;20111;-94
2021/12/01 02:03:26;;;;;;;6.95;3.72;;;9.10;86.20;;;;;;4919669;29;20080;-94
2021/12/01 02:05:55;;;;;;;10.18;4.47;;;9.10;86.20;;;;;;4921849;29;20583;-94
2021/12/01 02:08:29;;;;;;;7.03;3.67;;;9.10;86.20;;;;;;4919646;29;20078;-93
2021/12/01 02:10:58;;;;;;;7.18;3.67;;;9.10;86.20;;;;;;4925827;29;20052;-95
2021/12/01 02:13:27;;;;;;;7.30;4.03;;;9.00;86.20;;;;;;4926182;29;20107;-94
2021/12/01 02:15:56;;;;;;;5.60;3.75;;;9.00;86.20;;;;;;4926241;29;20056;-95
2021/12/01 02:18:23;;;;;;;6.75;3.70;;;9.00;86.20;;;;;;4924749;29;20056;-95
2021/12/01 02:21:03;;;;;;;8.43;3.65;;;9.00;86.20;;;;;;4927018;29;20052;-94
2021/12/01 02:23:32;;;;;;;6.10;3.50;;;9.00;86.10;;;;;;4922558;29;20124;-94
2021/12/01 02:25:59;;;;;;;6.32;3.33;;;9.00;86.10;;;;;;4925606;29;20052;-93
2021/12/01 02:28:26;;;;;;;6.13;3.50;;;9.00;86.10;;;;;;4926804;29;20052;-94
2021/12/01 02:30:53;;;;;;;10.45;3.53;;;9.00;86.10;;;;;;4926008;29;20059;-94
2021/12/01 02:33:20;;;;;;;7.65;3.47;;;9.00;86.10;;;;;;4921719;29;20484;-93
2021/12/01 02:35:47;;;;;;;6.45;3.50;;;9.00;86.00;;;;;;4921223;29;20080;-94
2021/12/01 02:38:15;;;;;;;6.72;3.30;;;9.00;86.00;;;;;;4921013;29;20135;-92
2021/12/01 02:40:43;;;;;;;6.35;3.38;;;9.00;86.00;;;;;;4920758;29;20044;-95
2021/12/01 02:43:10;;;;;;;7.20;3.53;;;8.90;86.00;;;;;;4920444;29;20060;-96
2021/12/01 02:45:41;;;;;;;6.40;3.25;;;9.00;86.00;;;;;;4920050;29;20044;-93
2021/12/01 02:48:11;;;;;;;9.93;3.33;;;9.00;86.00;;;;;;4920100;29;20055;-93
2021/12/01 02:50:41;;;;;;;9.90;3.35;;;9.00;86.00;;;;;;4918137;29;20048;-93
2021/12/01 02:53:09;;;;;;;5.78;2.88;;;8.90;86.00;;;;;;4919435;29;20111;-93
2021/12/01 02:56:03;;;;;;;8.82;3.10;;;9.00;86.00;;;;;;4919116;29;20056;-93
2021/12/01 02:58:40;;;;;;;5.63;2.90;;;8.90;86.00;;;;;;4917728;29;20060;-93
2021/12/01 03:01:17;;;;;;;8.05;2.97;;;8.90;86.00;;;;;;4920488;29;20466;-92
2021/12/01 03:03:46;;;;;;;6.40;2.20;;;8.90;86.00;;;;;;4933941;29;20056;-94
2021/12/01 03:06:14;;;;;;;6.10;2.58;;;8.90;86.00;;;;;;4918543;29;20059;-95
2021/12/01 03:08:42;;;;;;;6.80;2.60;;;8.90;86.00;;;;;;4918188;29;20060;-93
2021/12/01 03:11:10;;;;;;;6.65;2.80;;;8.90;86.10;;;;;;4919103;29;20059;-92
2021/12/01 03:13:37;;;;;;;7.43;2.72;;;8.90;86.10;;;;;;4918280;29;20056;-93
2021/12/01 03:16:05;;;;;;;4.93;2.58;;;8.90;86.10;;;;;;4920183;29;20048;-93
2021/12/01 03:18:32;;;;;;;5.88;2.65;;;8.90;86.10;;;;;;4917549;29;20541;-94
2021/12/01 03:21:00;;;;;;;5.47;2.15;;;8.90;86.10;;;;;;4918026;29;20056;-93
2021/12/01 03:23:27;;;;;;;5.68;2.53;;;8.90;86.10;;;;;;4918612;29;20048;-94
2021/12/01 03:25:54;;;;;;;5.32;2.80;;;8.90;86.10;;;;;;4919562;29;20112;-92
2021/12/01 03:28:21;;;;;;;4.80;2.28;;;8.90;86.10;;;;;;4919552;29;20052;-93
2021/12/01 03:30:50;;;;;;;6.60;2.50;;;8.80;86.10;;;;;;4916988;29;20060;-93
2021/12/01 03:33:19;;;;;;;7.38;2.38;;;8.90;86.20;;;;;;4919455;29;20056;-92
2021/12/01 03:35:49;;;;;;;6.43;2.40;;;8.80;86.20;;;;;;4918846;29;20060;-95
2021/12/01 03:38:20;;;;;;;7.82;2.63;;;8.80;86.20;;;;;;4918742;29;20044;-92
2021/12/01 03:40:47;;;;;;;4.63;2.40;;;8.80;86.20;;;;;;4916943;29;20052;-95
2021/12/01 03:43:15;;;;;;;5.45;2.30;;;8.80;86.20;;;;;;4921272;29;20059;-93
2021/12/01 03:45:43;;;;;;;8.65;2.45;;;8.80;86.30;;;;;;4919644;29;20052;-93
2021/12/01 03:48:10;;;;;;;6.05;2.00;;;8.80;86.30;;;;;;4918209;29;20056;-91
2021/12/01 03:50:39;;;;;;;4.15;2.20;;;8.80;86.30;;;;;;4919351;29;20066;-94
2021/12/01 03:53:07;;;;;;;4.13;1.83;;;8.80;86.30;;;;;;4919209;29;20056;-93
2021/12/01 03:55:35;;;;;;;6.82;2.28;;;8.80;86.30;;;;;;4919986;29;20060;-93
2021/12/01 03:58:05;;;;;;;6.88;2.05;;;8.80;86.40;;;;;;4919410;29;20063;-93
2021/12/01 04:00:32;;;;;;;4.85;1.95;;;8.80;86.40;;;;;;4916727;29;20066;-94
2021/12/01 04:02:59;;;;;;;5.25;1.95;;;8.70;86.40;;;;;;4917784;29;20060;-93
2021/12/01 04:05:27;;;;;;;4.70;2.00;;;8.80;86.50;;;;;;4918047;29;20051;-93
2021/12/01 04:07:55;;;;;;;3.80;1.88;;;8.70;86.50;;;;;;4918845;29;20052;-94
2021/12/01 04:10:22;;;;;;;5.90;1.80;;;8.70;86.50;;;;;;4917939;29;20529;-94
2021/12/01 04:12:50;;;;;;;4.50;1.67;;;8.80;86.50;;;;;;4917834;29;20667;-95
2021/12/01 04:15:18;;;;;;;3.55;1.55;;;8.70;86.50;;;;;;4917469;29;20056;-93
2021/12/01 04:17:45;;;;;;;3.55;1.70;;;8.70;86.60;;;;;;4919055;29;20056;-93
2021/12/01 04:20:15;;;;;;;3.58;1.40;;;8.70;86.60;;;;;;4916457;29;20063;-93
2021/12/01 04:22:44;;;;;;;2.75;1.42;;;8.80;86.60;;;;;;4915906;29;20051;-92
2021/12/01 04:25:11;;;;;;;3.60;1.50;;;8.70;86.60;;;;;;4916468;29;20060;-93
2021/12/01 04:27:39;;;;;;;4.13;1.50;;;8.70;86.70;;;;;;4915415;29;20056;-92
2021/12/01 04:30:10;;;;;;;3.17;1.30;;;8.80;86.70;;;;;;4915786;29;20059;-93
2021/12/01 04:32:37;;;;;;;4.72;1.50;;;8.70;86.70;;;;;;4915587;29;20052;-93
2021/12/01 04:35:06;;;;;;;5.93;1.48;;;8.70;86.70;;;;;;4918277;29;20056;-93
2021/12/01 04:37:35;;;;;;;4.78;1.40;;;8.80;86.70;;;;;;4916648;29;20123;-94
2021/12/01 04:40:05;;;;;;;4.68;1.30;;;8.80;86.80;;;;;;4918196;29;20568;-92
2021/12/01 04:42:32;;;;;;;5.18;1.55;;;8.80;86.80;;;;;;4918158;29;20421;-92
2021/12/01 04:45:00;;;;;;;4.80;1.40;;;8.80;86.80;;;;;;4918838;29;20052;-94
2021/12/01 04:47:30;;;;;;;5.28;1.40;;;8.80;86.80;;;;;;4922359;29;20626;-94
2021/12/01 04:49:57;;;;;;;4.85;1.30;;;8.80;86.90;;;;;;4917701;29;20075;-94
2021/12/01 04:52:25;;;;;;;2.22;1.10;;;8.80;86.90;;;;;;4918477;29;20111;-94
2021/12/01 04:54:52;;;;;;;3.90;1.20;;;8.80;86.90;;;;;;4919788;29;20312;-95
2021/12/01 04:57:19;;;;;;;3.70;1.30;;;8.80;86.90;;;;;;4917652;29;20071;-92
2021/12/01 04:59:46;;;;;;;4.55;1.30;;;8.90;86.90;;;;;;4919177;29;20197;-93
2021/12/01 05:02:14;;;;;;;3.55;1.52;;;8.80;86.90;;;;;;4917646;29;20063;-94
2021/12/01 05:04:41;;;;;;;6.10;1.48;;;8.90;86.90;;;;;;4917019;29;20304;-93
2021/12/01 05:07:10;;;;;;;4.15;1.20;;;8.90;86.90;;;;;;4917465;29;20052;-96
2021/12/01 05:09:37;;;;;;;3.05;1.30;;;8.90;86.90;;;;;;4918544;29;20084;-94
2021/12/01 05:12:09;;;;;;;3.83;1.20;;;8.80;86.90;;;;;;4919387;29;20417;-96
2021/12/01 05:14:37;;;;;;;3.08;1.30;;;8.90;87.00;;;;;;4902754;29;20056;-95
2021/12/01 05:17:06;;;;;;;5.00;1.30;;;8.90;87.00;;;;;;4917156;29;20507;-94
2021/12/01 05:19:33;;;;;;;2.55;0.95;;;8.90;87.00;;;;;;4915122;29;20067;-94
2021/12/01 05:22:02;;;;;;;2.72;0.93;;;8.90;87.00;;;;;;4916912;29;20107;-93
2021/12/01 05:24:30;;;;;;;3.58;0.85;;;8.90;87.00;;;;;;4918118;29;20063;-94
2021/12/01 05:26:57;;;;;;;3.35;1.10;;;8.90;87.00;;;;;;4917630;29;20048;-94
2021/12/01 05:29:24;;;;;;;2.90;1.10;;;8.90;87.00;;;;;;4916417;29;20048;-94
2021/12/01 05:31:53;;;;;;;2.90;0.90;;;8.90;87.00;;;;;;4920331;29;20060;-92
2021/12/01 05:34:20;;;;;;;3.45;1.10;;;8.90;87.00;;;;;;4917079;29;20056;-93
2021/12/01 05:36:48;;;;;;;3.83;1.00;;;8.90;87.00;;;;;;4919305;29;20052;-93
2021/12/01 05:39:17;;;;;;;1.95;0.90;;;8.90;87.00;;;;;;4905702;29;20083;-93
2021/12/01 05:41:44;;;;;;;1.90;0.73;;;8.90;87.00;;;;;;4922269;29;20067;-91
2021/12/01 05:44:26;;;;;;;2.08;1.10;;;8.90;87.00;;;;;;4924802;29;20044;-91
2021/12/01 05:46:53;;;;;;;3.78;0.80;;;8.90;87.00;;;;;;4993510;23;20064;-95
2021/12/01 05:49:20;;;;;;;3.33;0.93;;;8.90;87.00;;;;;;4945757;29;20213;-94
2021/12/01 05:51:46;;;;;;;1.65;0.80;;;8.90;87.10;;;;;;4939848;29;20056;-93
2021/12/01 05:54:13;;;;;;;1.70;0.70;;;8.90;87.10;;;;;;4938382;29;20058;-92
2021/12/01 05:56:40;;;;;;;1.20;0.75;;;8.90;87.10;;;;;;4940198;29;20043;-93
2021/12/01 05:59:07;;;;;;;3.65;0.93;;;8.90;87.10;;;;;;4940035;29;20106;-94
2021/12/01 06:01:34;;;;;;;1.60;0.77;;;8.90;87.10;;;;;;4940487;29;20047;-93
2021/12/01 06:04:02;;;;;;;1.50;0.65;;;8.90;87.10;;;;;;4942272;29;20051;-94
2021/12/01 06:06:29;;;;;;;2.05;0.60;;;8.90;87.10;;;;;;4946098;29;20047;-94
2021/12/01 06:08:57;;;;;;;1.25;0.73;;;8.90;87.10;;;;;;4942554;29;20052;-94
2021/12/01 06:11:24;;;;;;;5.68;0.90;;;8.90;87.10;;;;;;4940901;29;20043;-92
2021/12/01 06:13:52;;;;;;;3.72;0.90;;;8.90;87.10;;;;;;4940719;29;20055;-93
2021/12/01 06:16:21;;;;;;;2.88;0.73;;;8.90;87.20;;;;;;4947452;29;20055;-95
2021/12/01 06:18:49;;;;;;;3.15;0.80;;;8.90;87.20;;;;;;4943234;29;20083;-94
2021/12/01 06:21:16;;;;;;;1.25;0.70;;;8.90;87.20;;;;;;4943045;29;20052;-90
2021/12/01 06:23:44;;;;;;;1.52;0.70;;;8.90;87.20;;;;;;4943810;29;20047;-94
2021/12/01 06:26:11;;;;;;;1.70;0.65;;;8.90;87.20;;;;;;4939261;29;20119;-94
2021/12/01 06:28:38;;;;;;;2.63;0.73;;;8.90;87.20;;;;;;4940303;29;20051;-95
2021/12/01 06:31:05;;;;;;;1.90;0.70;;;8.90;87.20;;;;;;4943753;29;20051;-92
2021/12/01 06:33:32;;;;;;;1.63;0.55;;;8.90;87.20;;;;;;4941567;29;20087;-95
2021/12/01 06:35:59;;;;;;;1.75;0.70;;;8.90;87.20;;;;;;4945141;29;20052;-93
2021/12/01 06:38:26;;;;;;;1.35;0.70;;;9.00;87.30;;;;;;4937785;29;20036;-92
2021/12/01 06:40:53;;;;;;;1.80;0.80;;;9.00;87.30;;;;;;4926415;29;20056;-94
2021/12/01 06:43:20;;;;;;;3.72;0.90;;;9.00;87.30;;;;;;4937785;29;20047;-94
2021/12/01 06:45:47;;;;;;;2.22;0.80;;;9.00;87.30;;;;;;4947934;29;20103;-94
2021/12/01 06:48:14;;;;;;;1.92;0.98;;;9.00;87.30;;;;;;4939657;29;20060;-96
2021/12/01 06:50:41;;;;;;;1.77;0.90;;;9.00;87.30;;;;;;4938314;29;20063;-94
2021/12/01 06:53:08;;;;;;;2.53;1.00;;;9.10;87.40;;;;;;4937083;29;20055;-94
2021/12/01 06:55:35;;;;;;;1.98;1.00;;;9.00;87.40;;;;;;4935246;29;20134;-95
2021/12/01 06:58:02;;;;;;;2.05;1.00;;;9.10;87.40;;;;;;4941268;29;20052;-94
2021/12/01 07:00:30;;;;;;;4.78;1.17;;;9.00;87.40;;;;;;4938795;29;20111;-95
2021/12/01 07:02:57;;;;;;;3.35;1.10;;;9.10;87.50;;;;;;4937087;28;20066;-96
2021/12/01 07:05:24;;;;;;;3.80;1.10;;;9.10;87.50;;;;;;4973646;23;20075;-94
2021/12/01 07:07:52;;;;;;;2.22;1.08;;;9.10;87.50;;;;;;4922979;29;20059;-95
2021/12/01 07:10:20;;;;;;;2.60;1.30;;;9.10;87.50;;;;;;4930393;29;20595;-94
2021/12/01 07:12:47;;;;;;;3.13;1.20;;;9.20;87.60;;;;;;4925012;29;20052;-93
2021/12/01 07:15:18;;;;;;;1.85;1.00;;;9.20;87.60;;;;;;4920573;29;20060;-93
2021/12/01 07:17:45;;;;;;;4.47;1.48;;;9.20;87.60;;;;;;4921168;29;20048;-94
2021/12/01 07:20:12;;;;;;;1.90;1.00;;;9.20;87.60;;;;;;4927166;29;20056;-94
2021/12/01 07:22:39;;;;;;;2.63;1.08;;;9.20;87.60;;;;;;4918148;29;20048;-94
2021/12/01 07:25:06;;;;;;;1.67;0.90;;;9.30;87.60;;;;;;4917326;29;20059;-95
2021/12/01 07:27:33;;;;;;;4.03;0.90;;;9.30;87.60;;;;;;4917384;29;20108;-93
2021/12/01 07:30:00;;;;;;;3.38;1.13;;;9.30;87.60;;;;;;4916523;29;20059;-93
2021/12/01 07:32:27;;;;;;;2.08;0.90;;;9.30;87.60;;;;;;4916795;29;20051;-93
2021/12/01 07:34:56;;;;;;;4.47;1.02;;;9.30;87.70;;;;;;4916643;29;20198;-93
2021/12/01 07:37:23;;;;;;;3.13;0.88;;;9.30;87.70;;;;;;4916920;29;20107;-92
2021/12/01 07:39:52;;;;;;;4.05;1.15;;;9.40;87.70;;;;;;4914539;29;20133;-93
2021/12/01 07:42:19;;;;;;;7.28;1.50;;;9.40;87.70;;;;;;4916647;29;20703;-93
2021/12/01 07:44:46;;;;;;;5.43;1.30;;;9.40;87.70;;;;;;4916435;29;20048;-93
2021/12/01 07:47:13;;;;;;;6.13;1.38;;;9.40;87.70;;;;;;4917165;29;20052;-91
2021/12/01 07:49:40;;;;;;;6.65;1.40;;;9.40;87.80;;;;;;4916631;29;20576;-90
2021/12/01 07:52:08;;;;;;;7.55;1.42;;;9.40;87.80;;;;;;4911838;29;20052;-96
2021/12/01 07:54:37;;;;;;;9.73;1.73;;;9.40;87.80;;;;;;4915423;29;20056;-92
2021/12/01 07:57:04;;;;;;;8.50;1.40;;;9.50;87.80;;;;;;4918696;29;20052;-93
2021/12/01 07:59:31;;;;;;;10.38;2.13;;;9.50;87.80;;;;;;4917016;29;20056;-92
2021/12/01 08:01:58;;;;;;;5.50;1.40;;;9.50;87.80;;;;;;4916892;29;20462;-92
2021/12/01 08:04:25;;;;;;;12.32;2.05;;;9.50;87.80;;;;;;4916996;29;20056;-91
2021/12/01 08:06:54;;;;;;;13.13;2.03;;;9.50;87.80;;;;;;4916963;29;20103;-93
2021/12/01 08:09:21;;;;;;;9.55;1.80;;;9.50;87.80;;;;;;4916366;29;20048;-91
2021/12/01 08:11:48;;;;;;;12.18;2.00;;;9.60;87.80;;;;;;4916860;29;20047;-92
2021/12/01 08:14:15;;;;;;;15.80;2.40;;;9.60;87.80;;;;;;4916704;29;20111;-91
2021/12/01 08:16:42;;;;;;;13.38;1.70;;;9.60;87.80;;;;;;4916423;29;20048;-92
2021/12/01 08:19:09;;;;;;;15.15;2.50;;;9.60;87.80;;;;;;4916855;29;20059;-92
2021/12/01 08:21:36;;;;;;;13.23;2.40;;;9.60;87.80;;;;;;4915908;29;20260;-91
2021/12/01 08:24:09;;;;;;;12.98;2.70;;;9.60;87.80;;;;;;4914005;29;20052;-92
2021/12/01 08:26:37;;;;;;;10.73;2.08;;;9.70;87.80;;;;;;4915320;29;20142;-92
2021/12/01 08:29:04;;;;;;;12.35;2.35;;;9.70;87.80;;;;;;4915505;29;20584;-92
2021/12/01 08:31:31;;;;;;;14.85;2.45;;;9.70;87.80;;;;;;4915621;29;20056;-92
2021/12/01 08:33:59;;;;;;;24.85;2.50;;;9.70;87.80;;;;;;4914386;29;20056;-90
2021/12/01 08:36:26;;;;;;;16.88;3.00;;;9.70;87.90;;;;;;4915393;29;20421;-91
2021/12/01 08:38:53;;;;;;;12.15;2.08;;;9.70;87.90;;;;;;4914706;29;20064;-90
2021/12/01 08:41:21;;;;;;;13.32;2.08;;;9.70;87.90;;;;;;4915409;29;20056;-91
2021/12/01 08:43:48;;;;;;;11.45;2.22;;;9.80;87.90;;;;;;4915236;29;20048;-91
2021/12/01 08:46:15;;;;;;;7.25;1.60;;;9.70;87.90;;;;;;4915895;29;20052;-91
2021/12/01 08:48:43;;;;;;;9.77;1.85;;;9.70;87.80;;;;;;4914793;29;20058;-90
2021/12/01 08:51:10;;;;;;;10.85;2.00;;;9.70;87.80;;;;;;4914671;29;20055;-92
2021/12/01 08:53:40;;;;;;;12.63;2.15;;;9.80;87.80;;;;;;4915098;29;20055;-93
2021/12/01 08:56:08;;;;;;;8.00;1.98;;;9.70;87.70;;;;;;4915222;29;20052;-90
2021/12/01 08:58:35;;;;;;;8.10;1.50;;;9.70;87.70;;;;;;4915372;29;20103;-91
2021/12/01 09:01:03;;;;;;;13.60;2.38;;;9.70;87.70;;;;;;4915710;29;20059;-91
2021/12/01 09:03:30;;;;;;;15.75;2.70;;;9.70;87.70;;;;;;4914967;29;20052;-91
2021/12/01 09:05:57;;;;;;;18.10;2.38;;;9.70;87.60;;;;;;4914681;29;20063;-92
2021/12/01 09:08:25;;;;;;;15.10;2.75;;;9.70;87.60;;;;;;4915500;29;20044;-92
2021/12/01 09:10:56;;;;;;;21.15;3.17;;;9.70;87.60;;;;;;4915254;29;20490;-91
2021/12/01 09:13:25;;;;;;;15.57;3.05;;;9.70;87.60;;;;;;4915408;29;20111;-91
2021/12/01 09:15:53;;;;;;;17.00;3.35;;;9.70;87.60;;;;;;4914847;29;20052;-93
2021/12/01 09:18:21;;;;;;;17.10;2.90;;;9.70;87.60;;;;;;4913827;29;20056;-93
2021/12/01 09:20:48;;;;;;;21.77;3.08;;;9.70;87.60;;;;;;4918497;29;20044;-92
2021/12/01 09:23:16;;;;;;;13.88;2.13;;;9.70;87.60;;;;;;4917850;29;20040;-92
2021/12/01 09:25:44;;;;;;;14.48;2.40;;;9.70;87.50;;;;;;4919025;29;20052;-92
2021/12/01 09:28:18;;;;;;;13.93;2.30;;;9.70;87.50;;;;;;4919662;29;20048;-93
2021/12/01 09:30:46;;;;;;;10.83;2.03;;;9.70;87.50;;;;;;4918713;29;20052;-93
2021/12/01 09:33:14;;;;;;;12.50;2.25;;;9.70;87.40;;;;;;4918731;29;20482;-93
2021/12/01 09:35:43;;;;;;;16.58;2.25;;;9.70;87.30;;;;;;4918485;29;20543;-92
2021/12/01 09:38:13;;;;;;;15.02;2.13;;;9.70;87.30;;;;;;4917666;29;20052;-94
2021/12/01 09:40:47;;;;;;;10.82;1.77;;;9.70;87.20;;;;;;4918855;29;20059;-92
2021/12/01 09:43:16;;;;;;;14.48;2.40;;;9.70;87.10;;;;;;4915476;29;20126;-93
2021/12/01 09:45:45;;;;;;;11.30;2.10;;;9.60;87.10;;;;;;4918871;29;20052;-93
2021/12/01 09:48:12;;;;;;;13.38;2.20;;;9.60;87.00;;;;;;4918453;29;20472;-93
2021/12/01 09:50:39;;;;;;;9.70;2.03;;;9.60;86.90;;;;;;4918111;29;20048;-92
2021/12/01 09:53:10;;;;;;;12.13;2.15;;;9.60;86.90;;;;;;4918376;29;20052;-93
2021/12/01 09:55:40;;;;;;;11.80;2.00;;;9.60;86.80;;;;;;4918662;29;20083;-91
2021/12/01 09:58:11;;;;;;;11.57;1.63;;;9.50;86.80;;;;;;4918886;29;20055;-92
2021/12/01 10:00:42;;;;;;;12.70;2.08;;;9.50;86.80;;;;;;4918515;29;20056;-94
2021/12/01 10:03:10;;;;;;;10.05;1.73;;;9.50;86.70;;;;;;4918208;29;20131;-92
2021/12/01 10:05:46;;;;;;;6.53;1.50;;;9.60;86.60;;;;;;4917717;29;20073;-93
2021/12/01 10:08:30;;;;;;;9.10;1.25;;;9.50;86.50;;;;;;4918311;29;20494;-93
2021/12/01 10:10:57;;;;;;;12.85;1.75;;;9.50;86.40;;;;;;4904611;29;20111;-92
2021/12/01 10:13:31;;;;;;;9.60;1.30;;;9.50;86.40;;;;;;4918520;29;20089;-92
2021/12/01 10:16:01;;;;;;;8.40;1.65;;;9.50;86.30;;;;;;4916698;29;20063;-93
2021/12/01 10:18:34;;;;;;;8.45;1.70;;;9.50;86.10;;;;;;4917967;29;20052;-93
2021/12/01 10:21:09;;;;;;;6.68;1.27;;;9.50;86.00;;;;;;4917879;29;20055;-92
2021/12/01 10:23:38;;;;;;;8.00;1.40;;;9.50;85.90;;;;;;4917959;29;20398;-92
2021/12/01 10:26:32;;;;;;;6.53;1.35;;;9.50;85.80;;;;;;4917966;29;20060;-92
2021/12/01 10:29:01;;;;;;;6.82;1.20;;;9.50;85.70;;;;;;4904006;29;20521;-92
2021/12/01 10:31:41;;;;;;;9.50;1.70;;;9.50;85.60;;;;;;4917783;29;20052;-93
2021/12/01 10:34:29;;;;;;;12.70;1.65;;;9.50;85.50;;;;;;4932293;29;20080;-92
2021/12/01 10:37:13;;;;;;;9.63;1.40;;;9.50;85.40;;;;;;4918040;29;20044;-93
2021/12/01 10:40:01;;;;;;;5.70;1.40;;;9.50;85.30;;;;;;4917632;29;20052;-92
2021/12/01 10:42:27;;;;;;;5.13;1.10;;;9.50;85.30;;;;;;4917540;29;20056;-92
2021/12/01 10:45:00;;;;;;;6.20;1.48;;;9.50;85.20;;;;;;4917671;29;20060;-91
2021/12/01 10:47:39;;;;;;;7.93;1.35;;;9.50;85.20;;;;;;4917434;29;20047;-93
2021/12/01 10:50:08;;;;;;;6.85;1.27;;;9.50;85.10;;;;;;4917518;29;20131;-92
2021/12/01 10:52:42;;;;;;;6.38;0.90;;;9.50;85.00;;;;;;4917569;29;20083;-93
2021/12/01 10:55:17;;;;;;;6.22;1.00;;;9.50;85.00;;;;;;4918070;29;20056;-92
2021/12/01 10:57:54;;;;;;;5.47;0.90;;;9.50;84.90;;;;;;4917511;29;20056;-94
2021/12/01 11:00:26;;;;;;;10.23;1.45;;;9.50;84.90;;;;;;4917447;29;20068;-93
2021/12/01 11:03:08;;;;;;;5.15;1.20;;;9.60;84.80;;;;;;4916972;29;20052;-93
2021/12/01 11:05:43;;;;;;;9.75;1.13;;;9.50;84.70;;;;;;4916888;29;20151;-92
2021/12/01 11:08:17;;;;;;;6.47;1.10;;;9.50;84.60;;;;;;4917313;29;20052;-92
2021/12/01 11:10:50;;;;;;;5.68;1.25;;;9.60;84.60;;;;;;4917140;29;20064;-93
2021/12/01 11:13:18;;;;;;;5.78;1.00;;;9.60;84.50;;;;;;4917798;29;20084;-93
2021/12/01 11:16:06;;;;;;;3.15;0.80;;;9.60;84.50;;;;;;4917070;29;20498;-92
2021/12/01 11:18:59;;;;;;;5.15;1.02;;;9.70;84.40;;;;;;4914670;29;20079;-95
2021/12/01 11:21:25;;;;;;;6.25;1.00;;;9.80;84.40;;;;;;4916806;29;20296;-92
2021/12/01 11:24:02;;;;;;;5.13;0.95;;;9.80;84.40;;;;;;4916859;29;20107;-92
2021/12/01 11:26:31;;;;;;;9.75;1.08;;;9.90;84.30;;;;;;4916952;29;20056;-93
2021/12/01 11:28:59;;;;;;;8.40;1.35;;;9.90;84.20;;;;;;4916966;29;20055;-92
2021/12/01 11:31:34;;;;;;;5.15;1.10;;;9.90;84.00;;;;;;4916532;29;20063;-92
2021/12/01 11:34:31;;;;;;;5.07;1.30;;;10.00;83.90;;;;;;4915864;29;20071;-92
2021/12/01 11:36:57;;;;;;;6.07;1.00;;;10.10;83.70;;;;;;4909802;29;20052;-92
2021/12/01 11:39:29;;;;;;;7.97;1.25;;;10.10;83.60;;;;;;4916857;29;20064;-93
2021/12/01 11:41:56;;;;;;;4.25;0.90;;;10.20;83.50;;;;;;4915903;29;20076;-92
2021/12/01 11:44:25;;;;;;;6.80;1.00;;;10.20;83.30;;;;;;4916188;29;20044;-93
2021/12/01 11:46:52;;;;;;;2.78;1.00;;;10.30;83.10;;;;;;4916490;29;20084;-92
2021/12/01 11:49:22;;;;;;;4.50;0.93;;;10.30;82.90;;;;;;4916820;29;20084;-92
2021/12/01 11:52:00;;;;;;;4.88;1.23;;;10.40;82.70;;;;;;4916661;29;20052;-92
2021/12/01 11:54:28;;;;;;;8.32;1.00;;;10.40;82.60;;;;;;4916445;29;20060;-92
2021/12/01 11:57:05;;;;;;;6.38;1.10;;;10.40;82.30;;;;;;4916174;29;20536;-92
2021/12/01 11:59:37;;;;;;;3.08;0.90;;;10.50;82.10;;;;;;4916270;29;20044;-92
2021/12/01 12:02:08;;;;;;;3.47;1.05;;;10.50;81.90;;;;;;4915963;29;20084;-91
2021/12/01 12:04:45;;;;;;;4.28;1.15;;;10.50;81.70;;;;;;4915724;29;20060;-91
2021/12/01 12:07:19;;;;;;;5.85;0.98;;;10.50;81.40;;;;;;4916716;29;20056;-90
2021/12/01 12:10:05;;;;;;;8.63;1.40;;;10.50;81.20;;;;;;4915138;29;20048;-91
2021/12/01 12:12:57;;;;;;;4.38;1.25;;;10.50;81.00;;;;;;4915690;29;20063;-91
2021/12/01 12:15:45;;;;;;;6.60;1.00;;;10.40;80.90;;;;;;4915671;29;20466;-91
2021/12/01 12:18:34;;;;;;;4.38;0.70;;;10.40;80.90;;;;;;4915554;29;20078;-92
2021/12/01 12:21:13;;;;;;;7.35;1.30;;;10.40;81.00;;;;;;4915411;29;20060;-92
2021/12/01 12:23:41;;;;;;;5.30;1.00;;;10.40;81.00;;;;;;4914301;29;20130;-91
2021/12/01 12:26:10;;;;;;;4.22;0.98;;;10.40;81.00;;;;;;4915488;29;20111;-91
2021/12/01 12:28:40;;;;;;;6.43;1.08;;;10.40;80.90;;;;;;4915693;29;20099;-91
2021/12/01 12:31:26;;;;;;;3.67;0.88;;;10.30;80.80;;;;;;4914623;29;20052;-91
2021/12/01 12:33:59;;;;;;;4.07;0.75;;;10.30;80.70;;;;;;4915457;29;20521;-91
2021/12/01 12:36:41;;;;;;;2.35;0.80;;;10.20;80.70;;;;;;4915595;29;20078;-92
2021/12/01 12:39:13;;;;;;;3.25;0.82;;;10.20;80.60;;;;;;4915653;29;20052;-92
2021/12/01 12:41:55;;;;;;;6.25;1.23;;;10.20;80.70;;;;;;4915587;29;20505;-92
2021/12/01 12:44:30;;;;;;;1.95;0.68;;;10.10;80.80;;;;;;4915196;29;20269;-92
2021/12/01 12:47:43;;;;;;;4.35;0.70;;;10.10;80.90;;;;;;4914592;29;20044;-91
2021/12/01 12:50:18;;;;;;;3.05;1.00;;;10.00;81.00;;;;;;4902316;29;20054;-91
2021/12/01 12:52:52;;;;;;;;;;;10.00;81.10;;;;;;4915692;29;20075;-92
2021/12/01 12:55:22;;;;;;;2.88;0.73;;;9.90;81.20;;;;;;4911634;29;19970;-91
2021/12/01 12:58:00;;;;;;;2.38;0.77;;;9.90;81.40;;;;;;4915053;29;20056;-91
2021/12/01 13:00:36;;;;;;;4.80;1.05;;;9.90;81.60;;;;;;4915129;29;20098;-90
2021/12/01 13:03:22;;;;;;;1.92;0.65;;;9.90;81.80;;;;;;4915114;29;20056;-91
2021/12/01 13:06:25;;;;;;;3.47;0.80;;;9.80;82.00;;;;;;4915074;29;20244;-91
2021/12/01 13:08:52;;;;;;;4.10;0.90;;;9.80;82.20;;;;;;4915007;29;20104;-91
2021/12/01 13:11:24;;;;;;;4.88;0.88;;;9.80;82.30;;;;;;4915053;29;20104;-89
2021/12/01 13:13:57;;;;;;;4.03;0.75;;;9.80;82.40;;;;;;4900122;29;20048;-90
2021/12/01 13:16:28;;;;;;;2.15;0.68;;;9.70;82.40;;;;;;4915276;29;20080;-91
2021/12/01 13:19:04;;;;;;;4.63;1.00;;;9.70;82.40;;;;;;4915056;29;20063;-90